Time;durP1;ratioP1;P1;durP2;ratioP2;P2;SDS_P1;SDS_P2;PMS_P1;PMS_P2;Temp;Humidity;BMP_temperature;BMP_pressure;BME280_temperature;BME280_humidity;BME280_pressure;Samples;Min_cycle;Max_cycle;Signal;HPM_P1;HPM_P2
2021/11/25 00:00:31;;;;;;;14.03;7.53;;;8.40;99.90;;;;;;4905054;29;20493;-58
2021/11/25 00:02:58;;;;;;;9.90;4.97;;;8.30;99.90;;;;;;4904894;29;20561;-61
2021/11/25 00:05:30;;;;;;;12.23;5.10;;;8.30;99.90;;;;;;4903930;29;20542;-58
2021/11/25 00:07:58;;;;;;;9.97;5.10;;;8.20;99.90;;;;;;4903841;29;20450;-53
2021/11/25 00:10:26;;;;;;;10.17;4.50;;;8.20;99.90;;;;;;4903188;29;20904;-59
2021/11/25 00:12:54;;;;;;;7.43;5.17;;;8.20;99.90;;;;;;4903860;29;20450;-59
2021/11/25 00:15:21;;;;;;;10.07;4.43;;;8.20;99.90;;;;;;4903834;29;20482;-61
2021/11/25 00:17:50;;;;;;;6.90;4.60;;;8.30;99.90;;;;;;4904300;29;20454;-61
2021/11/25 00:20:17;;;;;;;7.47;4.70;;;8.20;99.90;;;;;;4904707;29;20821;-60
2021/11/25 00:22:45;;;;;;;4.43;2.90;;;8.20;99.90;;;;;;4904614;29;20458;-61
2021/11/25 00:25:14;;;;;;;7.77;4.10;;;8.20;99.90;;;;;;4905154;29;20459;-61
2021/11/25 00:27:42;;;;;;;6.27;3.90;;;8.30;99.90;;;;;;4904499;29;20497;-60
2021/11/25 00:30:10;;;;;;;5.50;3.30;;;8.30;99.90;;;;;;4904064;29;20471;-61
2021/11/25 00:32:38;;;;;;;6.50;3.93;;;8.30;99.90;;;;;;4904212;29;20486;-62
2021/11/25 00:35:06;;;;;;;3.50;2.50;;;8.40;99.90;;;;;;4904747;29;20501;-61
2021/11/25 00:37:33;;;;;;;5.30;3.00;;;8.40;99.90;;;;;;4905146;29;20461;-59
2021/11/25 00:40:00;;;;;;;5.70;4.30;;;8.40;99.90;;;;;;4905788;29;20462;-59
2021/11/25 00:42:29;;;;;;;6.37;3.77;;;8.40;99.90;;;;;;4906208;29;20458;-59
2021/11/25 00:44:56;;;;;;;9.20;4.13;;;8.40;99.90;;;;;;4906135;29;20465;-61
2021/11/25 00:47:23;;;;;;;5.67;4.33;;;8.40;99.90;;;;;;4905557;29;20502;-61
2021/11/25 00:49:50;;;;;;;7.60;3.73;;;8.30;99.90;;;;;;4904648;29;21022;-61
2021/11/25 00:52:17;;;;;;;5.20;3.40;;;8.30;99.90;;;;;;4903839;29;20465;-61
2021/11/25 00:54:44;;;;;;;4.47;3.07;;;8.30;99.90;;;;;;4904287;29;20478;-61
2021/11/25 00:57:11;;;;;;;6.13;3.90;;;8.40;99.90;;;;;;4903963;29;20471;-61
2021/11/25 00:59:39;;;;;;;8.93;4.20;;;8.30;99.90;;;;;;4904089;29;20439;-58
2021/11/25 01:02:06;;;;;;;5.60;3.00;;;8.40;99.90;;;;;;4904037;29;20447;-57
2021/11/25 01:04:33;;;;;;;4.83;3.20;;;8.40;99.90;;;;;;4904420;29;20556;-61
2021/11/25 01:07:00;;;;;;;3.50;3.20;;;8.40;99.90;;;;;;4904982;29;20565;-60
2021/11/25 01:09:27;;;;;;;4.40;3.00;;;8.30;99.90;;;;;;4904590;29;20502;-60
2021/11/25 01:12:01;;;;;;;6.33;2.83;;;8.30;99.90;;;;;;4903653;29;20450;-60
2021/11/25 01:14:28;;;;;;;4.67;3.40;;;8.20;99.90;;;;;;4903757;29;20442;-57
2021/11/25 01:16:56;;;;;;;4.90;3.40;;;8.30;99.90;;;;;;4903567;29;20453;-57
2021/11/25 01:19:24;;;;;;;4.20;3.57;;;8.30;99.90;;;;;;4903526;29;20517;-60
2021/11/25 01:21:51;;;;;;;4.40;3.17;;;8.30;99.90;;;;;;4903729;29;20494;-62
2021/11/25 01:24:18;;;;;;;7.00;3.73;;;8.20;99.90;;;;;;4903748;29;20462;-60
2021/11/25 01:26:45;;;;;;;6.60;3.50;;;8.20;99.90;;;;;;4903961;29;20526;-59
2021/11/25 01:29:12;;;;;;;5.70;3.73;;;8.30;99.90;;;;;;4903219;29;20454;-59
2021/11/25 01:31:39;;;;;;;6.27;3.90;;;8.30;99.90;;;;;;4903364;29;20537;-60
2021/11/25 01:34:08;;;;;;;4.93;3.40;;;8.40;99.90;;;;;;4905746;29;20478;-59
2021/11/25 01:36:35;;;;;;;3.40;3.07;;;8.40;99.90;;;;;;4906431;29;20510;-60
2021/11/25 01:39:03;;;;;;;5.20;3.63;;;8.40;99.90;;;;;;4906692;29;20838;-61
2021/11/25 01:41:30;;;;;;;4.00;3.13;;;8.40;99.90;;;;;;4906582;29;20454;-59
2021/11/25 01:43:57;;;;;;;4.40;3.17;;;8.40;99.90;;;;;;4905100;29;20446;-59
2021/11/25 01:46:25;;;;;;;6.23;3.70;;;8.40;99.90;;;;;;4902850;29;20960;-57
2021/11/25 01:48:52;;;;;;;5.03;3.27;;;8.40;99.90;;;;;;4902955;29;20529;-57
2021/11/25 01:51:25;;;;;;;3.47;2.83;;;8.30;99.90;;;;;;4902882;29;20483;-59
2021/11/25 01:53:52;;;;;;;3.57;2.53;;;8.20;99.90;;;;;;4903096;29;20454;-60
2021/11/25 01:56:20;;;;;;;4.20;2.73;;;8.20;99.90;;;;;;4902891;29;20920;-60
2021/11/25 01:58:47;;;;;;;5.23;3.20;;;8.20;99.90;;;;;;4902714;29;20978;-60
2021/11/25 02:01:17;;;;;;;5.50;3.37;;;8.20;99.90;;;;;;4902867;29;20478;-60
2021/11/25 02:03:44;;;;;;;7.60;4.57;;;8.20;99.90;;;;;;4903328;29;20470;-55
2021/11/25 02:06:13;;;;;;;5.90;4.07;;;8.20;99.90;;;;;;4902648;29;20447;-60
2021/11/25 02:08:42;;;;;;;3.97;3.10;;;8.20;99.90;;;;;;4902517;29;20451;-57
2021/11/25 02:11:10;;;;;;;5.83;4.10;;;8.20;99.90;;;;;;4902940;29;20489;-60
2021/11/25 02:13:37;;;;;;;5.77;3.77;;;8.10;99.90;;;;;;4903363;29;20498;-56
2021/11/25 02:16:04;;;;;;;5.90;3.80;;;8.00;99.90;;;;;;4903339;29;20530;-57
2021/11/25 02:18:31;;;;;;;7.57;4.07;;;7.90;99.90;;;;;;4903495;29;20467;-59
2021/11/25 02:21:02;;;;;;;4.77;3.97;;;7.90;99.90;;;;;;4902673;29;20479;-59
2021/11/25 02:23:29;;;;;;;5.33;3.97;;;7.80;99.90;;;;;;4902855;29;20482;-62
2021/11/25 02:25:57;;;;;;;7.07;4.67;;;7.80;99.90;;;;;;4902590;29;20447;-60
2021/11/25 02:28:26;;;;;;;5.50;4.40;;;7.80;99.90;;;;;;4902848;29;20596;-60
2021/11/25 02:30:54;;;;;;;7.37;4.80;;;7.80;99.90;;;;;;4902618;29;20472;-60
2021/11/25 02:33:21;;;;;;;7.83;5.80;;;7.70;99.90;;;;;;4902560;29;20483;-62
2021/11/25 02:35:48;;;;;;;7.07;5.83;;;7.70;99.90;;;;;;4902799;29;20530;-62
2021/11/25 02:38:16;;;;;;;6.40;5.07;;;7.70;99.90;;;;;;4902821;29;20446;-61
2021/11/25 02:40:46;;;;;;;8.93;6.10;;;7.80;99.90;;;;;;4902591;29;20474;-61
2021/11/25 02:43:15;;;;;;;10.80;6.80;;;7.80;99.90;;;;;;4902852;29;20482;-59
2021/11/25 02:45:47;;;;;;;7.73;5.33;;;7.70;99.90;;;;;;4902393;29;20482;-58
2021/11/25 02:48:14;;;;;;;7.37;5.40;;;7.80;99.90;;;;;;4902348;29;20486;-61
2021/11/25 02:50:42;;;;;;;12.07;6.83;;;7.70;99.90;;;;;;4902858;29;20526;-61
2021/11/25 02:53:10;;;;;;;7.07;5.97;;;7.70;99.90;;;;;;4902807;29;20542;-57
2021/11/25 02:55:39;;;;;;;15.07;7.40;;;7.70;99.90;;;;;;4907577;29;20462;-58
2021/11/25 02:58:06;;;;;;;8.50;5.87;;;7.80;99.90;;;;;;4910393;29;20457;-60
2021/11/25 03:00:37;;;;;;;11.13;6.60;;;7.80;99.90;;;;;;4911000;29;20773;-61
2021/11/25 03:03:09;;;;;;;10.23;6.17;;;7.80;99.90;;;;;;4906455;29;20446;-56
2021/11/25 03:05:36;;;;;;;9.63;7.07;;;7.70;99.90;;;;;;4906686;29;20545;-61
2021/11/25 03:08:04;;;;;;;12.20;7.00;;;7.50;99.90;;;;;;4906784;29;20501;-60
2021/11/25 03:10:39;;;;;;;11.47;6.83;;;7.40;99.90;;;;;;4907512;29;20466;-60
2021/11/25 03:13:07;;;;;;;14.83;8.27;;;7.40;99.90;;;;;;4910113;29;20425;-57
2021/11/25 03:15:37;;;;;;;10.70;7.97;;;7.40;99.90;;;;;;4908502;29;20511;-60
2021/11/25 03:18:04;;;;;;;13.30;8.03;;;7.30;99.90;;;;;;4906728;29;20478;-60
2021/11/25 03:20:31;;;;;;;13.27;7.70;;;7.40;99.90;;;;;;4905910;29;20508;-59
2021/11/25 03:22:58;;;;;;;12.10;7.67;;;7.40;99.90;;;;;;4906618;29;20521;-58
2021/11/25 03:25:25;;;;;;;12.20;6.93;;;7.40;99.90;;;;;;4920220;23;20502;-43
2021/11/25 03:27:53;;;;;;;10.83;7.33;;;7.40;99.90;;;;;;4923943;29;20489;-46
2021/11/25 03:30:23;;;;;;;11.63;7.53;;;7.40;99.90;;;;;;4930326;23;20526;-56
2021/11/25 03:32:51;;;;;;;15.17;8.40;;;7.40;99.90;;;;;;4923347;29;21145;-58
2021/11/25 03:35:25;;;;;;;13.77;7.60;;;7.40;99.90;;;;;;4942776;23;20498;-57
2021/11/25 03:37:52;;;;;;;10.80;6.80;;;7.30;99.90;;;;;;4903084;29;20450;-58
2021/11/25 03:40:22;;;;;;;9.90;7.10;;;7.30;99.90;;;;;;4917560;23;20967;-60
2021/11/25 03:42:49;;;;;;;12.67;7.80;;;7.30;99.90;;;;;;4906077;29;20450;-57
2021/11/25 03:45:18;;;;;;;15.13;8.53;;;7.30;99.90;;;;;;4912967;23;20490;-57
2021/11/25 03:47:45;;;;;;;11.60;8.63;;;7.40;99.90;;;;;;4905062;29;20506;-61
2021/11/25 03:50:14;;;;;;;12.77;7.97;;;7.40;99.90;;;;;;4918948;23;20530;-61
2021/11/25 03:52:41;;;;;;;15.10;8.53;;;7.50;99.90;;;;;;4888084;29;20451;-58
2021/11/25 03:55:11;;;;;;;10.13;7.20;;;7.50;99.90;;;;;;4899738;23;20956;-61
2021/11/25 03:57:39;;;;;;;15.60;8.20;;;7.50;99.90;;;;;;4905666;29;20455;-61
2021/11/25 04:00:08;;;;;;;16.00;9.23;;;7.50;99.90;;;;;;4912860;23;20562;-59
2021/11/25 04:02:36;;;;;;;15.00;9.13;;;7.50;99.90;;;;;;4905721;29;20521;-61
2021/11/25 04:05:04;;;;;;;17.17;9.53;;;7.50;99.90;;;;;;4910416;23;20482;-60
2021/11/25 04:07:33;;;;;;;19.50;9.87;;;7.40;99.90;;;;;;4886675;29;20475;-58
2021/11/25 04:10:00;;;;;;;13.00;8.10;;;7.30;99.90;;;;;;4895733;23;20535;-53
2021/11/25 04:12:27;;;;;;;14.57;9.17;;;7.20;99.90;;;;;;4904893;29;20542;-59
2021/11/25 04:14:54;;;;;;;17.87;8.90;;;7.20;99.90;;;;;;4905627;29;20759;-59
2021/11/25 04:17:23;;;;;;;13.40;7.87;;;7.20;99.90;;;;;;4912616;23;20490;-58
2021/11/25 04:19:52;;;;;;;11.77;8.53;;;7.20;99.90;;;;;;4905749;29;20542;-60
2021/11/25 04:22:21;;;;;;;16.20;8.80;;;7.20;99.90;;;;;;4913087;23;20502;-60
2021/11/25 04:24:51;;;;;;;20.23;9.57;;;7.20;99.90;;;;;;4905215;29;20482;-61
2021/11/25 04:27:18;;;;;;;19.07;10.80;;;7.20;99.90;;;;;;4912229;23;20566;-62
2021/11/25 04:29:51;;;;;;;16.30;9.30;;;7.20;99.90;;;;;;4905374;29;20506;-61
2021/11/25 04:37:52;;;;;;;19.77;9.17;;;7.30;99.90;;;;;;4912899;23;20505;-62
2021/11/25 04:40:21;;;;;;;20.73;10.53;;;7.20;99.90;;;;;;4905038;29;20518;-62
2021/11/25 04:42:48;;;;;;;16.67;10.90;;;7.30;99.90;;;;;;4915021;23;20517;-62
2021/11/25 04:45:15;;;;;;;20.07;11.33;;;7.30;99.90;;;;;;4905108;29;20464;-57
2021/11/25 04:47:45;;;;;;;14.57;10.10;;;7.30;99.90;;;;;;4912448;23;21662;-60
2021/11/25 04:50:14;;;;;;;17.00;11.57;;;7.30;99.90;;;;;;4904809;29;20511;-61
2021/11/25 04:52:41;;;;;;;25.53;11.93;;;7.20;99.90;;;;;;4911470;23;20466;-65
2021/11/25 04:55:08;;;;;;;15.83;10.37;;;7.20;99.90;;;;;;4904116;29;20582;-61
2021/11/25 05:00:16;;;;;;;21.43;10.80;;;7.20;99.90;;;;;;4909383;23;20963;-61
2021/11/25 05:02:43;;;;;;;16.20;11.67;;;7.30;99.90;;;;;;4904153;29;20498;-61
2021/11/25 05:05:10;;;;;;;20.73;12.07;;;7.30;99.90;;;;;;4895061;23;20554;-62
2021/11/25 05:07:39;;;;;;;19.93;11.27;;;7.30;99.90;;;;;;4885099;29;20498;-61
2021/11/25 05:10:08;;;;;;;17.80;9.67;;;7.20;99.90;;;;;;4909044;23;20497;-62
2021/11/25 05:12:36;;;;;;;24.50;12.33;;;7.10;99.90;;;;;;4904370;29;20549;-61
2021/11/25 05:15:07;;;;;;;18.90;12.40;;;7.20;99.90;;;;;;4918523;23;20586;-61
2021/11/25 05:17:34;;;;;;;18.37;9.80;;;7.20;99.90;;;;;;4904880;29;20495;-61
2021/11/25 05:20:01;;;;;;;20.17;11.77;;;7.20;99.90;;;;;;4926367;23;20581;-60
2021/11/25 05:22:28;;;;;;;20.43;11.30;;;7.30;99.90;;;;;;4904473;29;20467;-61
2021/11/25 05:25:03;;;;;;;19.50;11.80;;;7.20;99.90;;;;;;4911241;23;20481;-58
2021/11/25 05:27:30;;;;;;;18.40;10.90;;;7.20;99.90;;;;;;4904391;29;20470;-61
2021/11/25 05:29:57;;;;;;;21.73;11.53;;;7.20;99.90;;;;;;4927027;23;20493;-59
2021/11/25 05:32:24;;;;;;;24.03;14.63;;;7.10;99.90;;;;;;4902863;29;20470;-62
2021/11/25 05:34:53;;;;;;;17.93;10.73;;;7.20;99.90;;;;;;4904150;29;20488;-62
2021/11/25 05:37:20;;;;;;;19.57;10.77;;;7.10;99.90;;;;;;4911250;23;20514;-61
2021/11/25 05:39:47;;;;;;;17.70;10.80;;;7.10;99.90;;;;;;4904884;29;20447;-55
2021/11/25 05:42:15;;;;;;;19.13;10.43;;;7.20;99.90;;;;;;4912289;23;20490;-60
2021/11/25 05:44:43;;;;;;;26.17;11.87;;;7.20;99.90;;;;;;4904186;29;20454;-62
2021/11/25 05:47:15;;;;;;;20.73;13.47;;;7.20;99.90;;;;;;4919323;23;20494;-61
2021/11/25 05:49:44;;;;;;;20.10;10.10;;;7.20;99.90;;;;;;4905061;29;20531;-60
2021/11/25 05:52:20;;;;;;;27.10;12.80;;;7.20;99.90;;;;;;4910835;23;20489;-59
2021/11/25 05:54:48;;;;;;;20.93;12.60;;;7.20;99.90;;;;;;4903736;29;20446;-55
2021/11/25 05:57:21;;;;;;;16.97;11.97;;;7.20;99.90;;;;;;4910832;23;20497;-60
2021/11/25 05:59:51;;;;;;;20.30;11.60;;;7.20;99.90;;;;;;4903205;29;20442;-57
2021/11/25 06:02:20;;;;;;;21.17;11.63;;;7.20;99.90;;;;;;4925037;23;20548;-59
2021/11/25 06:04:47;;;;;;;25.90;12.90;;;7.10;99.90;;;;;;4903633;29;20454;-61
2021/11/25 06:07:14;;;;;;;18.37;11.40;;;7.10;99.90;;;;;;4909887;23;20525;-60
2021/11/25 06:09:41;;;;;;;20.10;11.23;;;7.00;99.90;;;;;;4903415;29;20518;-62
2021/11/25 06:12:09;;;;;;;17.53;10.97;;;7.00;99.90;;;;;;4910357;23;20485;-60
2021/11/25 06:14:38;;;;;;;21.03;11.53;;;7.00;99.90;;;;;;4903179;29;20465;-54
2021/11/25 06:17:05;;;;;;;17.97;10.73;;;7.00;99.90;;;;;;4910055;23;20490;-60
2021/11/25 06:19:32;;;;;;;16.73;12.70;;;7.00;99.90;;;;;;4910670;23;20525;-62
2021/11/25 06:22:01;;;;;;;17.17;10.63;;;7.00;99.90;;;;;;4903525;29;20450;-61
2021/11/25 06:24:28;;;;;;;18.70;11.97;;;6.90;99.90;;;;;;4910718;23;20546;-59
2021/11/25 06:26:55;;;;;;;20.37;11.53;;;6.90;99.90;;;;;;4903478;29;20450;-62
2021/11/25 06:29:22;;;;;;;19.47;10.80;;;6.90;99.90;;;;;;4909755;23;21007;-61
2021/11/25 06:31:50;;;;;;;24.10;12.80;;;6.90;99.90;;;;;;4903205;29;20498;-61
2021/11/25 06:34:17;;;;;;;17.70;12.00;;;6.90;99.90;;;;;;4932661;23;20506;-57
2021/11/25 06:36:45;;;;;;;25.43;9.67;;;7.00;99.90;;;;;;4903208;29;20478;-57
2021/11/25 06:39:14;;;;;;;19.63;11.07;;;7.00;99.90;;;;;;4918067;23;20570;-55
2021/11/25 06:41:42;;;;;;;21.33;10.53;;;6.90;99.90;;;;;;4902949;29;20513;-60
2021/11/25 06:44:23;;;;;;;19.40;11.40;;;6.90;99.90;;;;;;4909874;23;20492;-61
2021/11/25 06:46:52;;;;;;;21.00;13.00;;;6.80;99.90;;;;;;4903634;29;20446;-59
2021/11/25 06:49:19;;;;;;;21.13;11.37;;;6.80;99.90;;;;;;4910244;23;20506;-61
2021/11/25 06:51:46;;;;;;;21.57;12.03;;;6.80;99.90;;;;;;4904034;29;20492;-61
2021/11/25 06:54:13;;;;;;;17.60;11.13;;;6.70;99.90;;;;;;4925229;23;20454;-61
2021/11/25 06:56:40;;;;;;;19.33;10.50;;;6.70;99.90;;;;;;4903412;29;20519;-60
2021/11/25 07:01:34;;;;;;;24.23;13.90;;;6.60;99.90;;;;;;4922831;23;20478;-61
2021/11/25 07:04:03;;;;;;;21.33;11.27;;;6.60;99.90;;;;;;4903213;29;20447;-60
2021/11/25 07:06:44;;;;;;;19.70;11.53;;;6.60;99.90;;;;;;4909666;23;20506;-61
2021/11/25 07:09:11;;;;;;;23.03;10.43;;;6.50;99.90;;;;;;4903175;29;20509;-59
2021/11/25 07:11:38;;;;;;;16.97;9.60;;;6.50;99.90;;;;;;4910624;23;20494;-59
2021/11/25 07:14:05;;;;;;;20.77;11.77;;;6.50;99.90;;;;;;4902812;29;21025;-58
2021/11/25 07:16:32;;;;;;;22.87;12.70;;;6.50;99.90;;;;;;4903545;29;20423;-61
2021/11/25 07:18:59;;;;;;;21.87;10.00;;;6.50;99.90;;;;;;4903108;29;20521;-61
2021/11/25 07:21:27;;;;;;;24.23;10.67;;;6.60;99.90;;;;;;4903103;29;20860;-58
2021/11/25 07:23:55;;;;;;;19.40;12.10;;;6.60;99.90;;;;;;4903182;29;20931;-60
2021/11/25 07:26:22;;;;;;;18.90;11.40;;;6.60;99.90;;;;;;4902652;29;20476;-61
2021/11/25 07:28:49;;;;;;;27.30;13.90;;;6.60;99.90;;;;;;4902813;29;20520;-61
2021/11/25 07:31:16;;;;;;;16.53;10.67;;;6.60;99.90;;;;;;4902722;29;20528;-59
2021/11/25 07:33:46;;;;;;;17.73;10.60;;;6.60;99.90;;;;;;4906777;29;21028;-59
2021/11/25 07:36:13;;;;;;;18.23;10.77;;;6.60;99.90;;;;;;4907547;29;20510;-61
2021/11/25 07:38:42;;;;;;;21.00;11.17;;;6.60;99.90;;;;;;4900640;29;20517;-61
2021/11/25 07:41:09;;;;;;;24.23;12.10;;;6.60;99.90;;;;;;4904056;29;20454;-60
2021/11/25 07:43:36;;;;;;;17.47;11.47;;;6.60;99.90;;;;;;4914172;29;20537;-55
2021/11/25 07:46:03;;;;;;;23.60;11.60;;;6.60;99.90;;;;;;4920292;29;20446;-57
2021/11/25 07:48:30;;;;;;;22.20;11.77;;;6.60;99.90;;;;;;4918266;29;20490;-56
2021/11/25 07:50:57;;;;;;;22.20;12.17;;;6.60;99.90;;;;;;4910979;29;20538;-50
2021/11/25 07:53:24;;;;;;;18.63;11.13;;;6.60;99.90;;;;;;4911046;29;20446;-54
2021/11/25 07:55:53;;;;;;;21.90;12.10;;;6.60;99.90;;;;;;4911117;29;20462;-58
2021/11/25 07:58:20;;;;;;;20.10;11.47;;;6.70;99.90;;;;;;4911344;29;20443;-61
2021/11/25 08:00:47;;;;;;;18.33;10.60;;;6.60;99.90;;;;;;4911528;29;20474;-57
2021/11/25 08:03:14;;;;;;;19.20;11.50;;;6.70;99.90;;;;;;4920863;29;20465;-53
2021/11/25 08:05:42;;;;;;;17.47;9.87;;;6.70;99.90;;;;;;4928666;29;20776;-52
2021/11/25 08:08:09;;;;;;;18.97;12.70;;;6.70;99.90;;;;;;4937564;23;20533;-51
2021/11/25 08:10:43;;;;;;;20.20;11.53;;;6.70;99.90;;;;;;4909569;29;20485;-52
2021/11/25 08:13:12;;;;;;;21.60;11.00;;;6.70;99.90;;;;;;4917102;23;20522;-50
2021/11/25 08:15:39;;;;;;;20.37;9.73;;;6.60;99.90;;;;;;4909715;29;20475;-51
2021/11/25 08:18:07;;;;;;;20.53;11.20;;;6.70;99.90;;;;;;4916879;23;20490;-53
2021/11/25 08:20:35;;;;;;;17.37;10.23;;;6.70;99.90;;;;;;4909232;29;20470;-54
2021/11/25 08:23:02;;;;;;;16.77;10.03;;;6.70;99.90;;;;;;4935188;23;20509;-48
2021/11/25 08:25:29;;;;;;;24.73;11.90;;;6.70;99.90;;;;;;4908688;29;20446;-52
2021/11/25 08:27:57;;;;;;;21.73;12.97;;;6.70;99.90;;;;;;4911370;23;20498;-53
2021/11/25 08:30:26;;;;;;;17.13;9.60;;;6.70;99.90;;;;;;4902977;29;20573;-52
2021/11/25 08:32:53;;;;;;;20.07;10.33;;;6.70;99.90;;;;;;4911076;23;20478;-49
2021/11/25 08:35:20;;;;;;;17.70;10.30;;;6.70;99.90;;;;;;4909812;29;20502;-52
2021/11/25 08:40:16;;;;;;;16.47;9.10;;;6.70;99.90;;;;;;4851335;29;20497;-54
2021/11/25 08:42:45;;;;;;;20.80;10.37;;;6.60;99.90;;;;;;4853466;29;20464;-54
2021/11/25 08:45:14;;;;;;;21.07;11.70;;;6.60;99.90;;;;;;4911115;23;20566;-50
2021/11/25 08:47:42;;;;;;;24.33;12.83;;;6.60;99.90;;;;;;4909827;29;20442;-51
2021/11/25 08:50:11;;;;;;;17.30;10.60;;;6.60;99.90;;;;;;4916307;23;20592;-51
2021/11/25 08:52:39;;;;;;;19.27;12.17;;;6.60;99.90;;;;;;4907899;29;20554;-50
2021/11/25 08:55:07;;;;;;;14.63;9.83;;;6.60;99.90;;;;;;4903248;23;20495;-51
2021/11/25 08:57:36;;;;;;;16.30;9.77;;;6.60;99.90;;;;;;4890650;29;20483;-54
2021/11/25 09:00:05;;;;;;;20.13;11.80;;;6.60;99.90;;;;;;4908542;23;20502;-52
2021/11/25 09:02:32;;;;;;;26.90;12.47;;;6.60;99.90;;;;;;4909288;29;20474;-46
2021/11/25 09:05:00;;;;;;;16.70;10.73;;;6.60;99.90;;;;;;4915504;23;20498;-49
2021/11/25 09:07:28;;;;;;;18.80;11.10;;;6.60;99.90;;;;;;4908584;29;20534;-49
2021/11/25 09:09:57;;;;;;;18.37;10.70;;;6.60;99.90;;;;;;4932511;23;20481;-46
2021/11/25 09:12:31;;;;;;;16.77;9.50;;;6.60;99.90;;;;;;4926349;29;20430;-53
2021/11/25 09:14:59;;;;;;;19.93;11.90;;;6.70;99.90;;;;;;4910052;23;20493;-56
2021/11/25 09:17:32;;;;;;;25.57;13.53;;;6.70;99.90;;;;;;4920616;29;20490;-48
2021/11/25 09:20:10;;;;;;;21.17;12.20;;;6.60;99.90;;;;;;4915730;23;20562;-49
2021/11/25 09:22:38;;;;;;;22.53;11.87;;;6.60;99.90;;;;;;4917143;23;20494;-49
2021/11/25 09:25:07;;;;;;;27.27;13.80;;;6.60;99.90;;;;;;4922303;29;20481;-52
2021/11/25 09:27:34;;;;;;;20.53;10.67;;;6.60;99.90;;;;;;4930797;23;20535;-50
2021/11/25 09:30:01;;;;;;;19.37;10.10;;;6.70;99.90;;;;;;4905657;29;20487;-52
2021/11/25 09:32:28;;;;;;;20.20;10.63;;;6.70;99.90;;;;;;4923339;23;20507;-48
2021/11/25 09:34:55;;;;;;;16.77;10.40;;;6.70;99.90;;;;;;4898889;29;20504;-53
2021/11/25 09:37:24;;;;;;;18.40;10.23;;;6.70;99.90;;;;;;4912719;23;20513;-47
2021/11/25 09:39:51;;;;;;;18.87;10.50;;;6.60;99.90;;;;;;4906768;29;20793;-50
2021/11/25 09:42:18;;;;;;;15.20;10.20;;;6.60;99.90;;;;;;4926270;23;20507;-52
2021/11/25 09:44:52;;;;;;;23.93;12.80;;;6.60;99.90;;;;;;4898706;29;20819;-50
2021/11/25 09:47:23;;;;;;;24.10;12.23;;;6.60;99.90;;;;;;4905114;23;20483;-46
2021/11/25 09:49:51;;;;;;;17.70;9.93;;;6.70;99.90;;;;;;4898522;29;20485;-52
2021/11/25 09:52:18;;;;;;;18.03;11.40;;;6.70;99.90;;;;;;4910702;23;20505;-50
2021/11/25 09:54:47;;;;;;;21.30;10.07;;;6.70;99.90;;;;;;4934977;29;20506;-49
2021/11/25 09:57:19;;;;;;;19.10;10.50;;;6.80;99.90;;;;;;4948345;23;20502;-52
2021/11/25 09:59:59;;;;;;;18.43;10.27;;;6.70;99.90;;;;;;4908523;29;20459;-49
2021/11/25 10:02:27;;;;;;;21.47;10.70;;;6.80;99.90;;;;;;4913345;23;20474;-50
2021/11/25 10:04:54;;;;;;;19.87;9.33;;;6.80;99.90;;;;;;4932411;29;20459;-50
2021/11/25 10:07:30;;;;;;;22.20;10.70;;;6.70;99.90;;;;;;4929887;23;20434;-49
2021/11/25 10:10:18;;;;;;;14.23;8.47;;;6.70;99.90;;;;;;4899144;29;20479;-52
2021/11/25 10:12:57;;;;;;;22.47;10.80;;;6.60;99.90;;;;;;4922966;23;21876;-49
2021/11/25 10:15:35;;;;;;;19.53;11.93;;;6.60;99.90;;;;;;4910579;29;20432;-48
2021/11/25 10:18:08;;;;;;;16.10;10.13;;;6.60;99.90;;;;;;4918131;23;20523;-51
2021/11/25 10:20:40;;;;;;;18.10;11.00;;;6.60;99.90;;;;;;4907825;29;20952;-51
2021/11/25 10:23:22;;;;;;;20.43;11.20;;;6.60;99.90;;;;;;4915970;23;20494;-49
2021/11/25 10:25:55;;;;;;;16.50;9.77;;;6.50;99.90;;;;;;4926898;23;20489;-53
2021/11/25 10:28:31;;;;;;;17.10;10.83;;;6.40;99.90;;;;;;4912543;29;20457;-45
2021/11/25 10:31:04;;;;;;;26.77;11.57;;;6.40;99.90;;;;;;4917317;23;20560;-51
2021/11/25 10:33:36;;;;;;;18.00;11.07;;;6.50;99.90;;;;;;4919584;29;20935;-51
2021/11/25 10:39:02;;;;;;;27.37;10.77;;;6.50;99.90;;;;;;4883030;29;20522;-52
2021/11/25 10:41:32;;;;;;;19.87;9.73;;;6.50;99.90;;;;;;4903530;23;20491;-48
2021/11/25 10:44:06;;;;;;;19.13;10.00;;;6.60;99.90;;;;;;4888689;29;20448;-52
2021/11/25 10:46:42;;;;;;;20.50;9.90;;;6.60;99.90;;;;;;4911888;23;20514;-48
2021/11/25 10:49:11;;;;;;;17.13;9.23;;;6.60;99.90;;;;;;4908855;29;20478;-51
2021/11/25 10:51:41;;;;;;;20.13;10.07;;;6.60;99.90;;;;;;4923597;23;20974;-49
2021/11/25 10:54:10;;;;;;;16.87;9.37;;;6.60;99.90;;;;;;4914731;29;20470;-47
2021/11/25 10:56:43;;;;;;;16.70;8.57;;;6.60;99.90;;;;;;4917886;23;20775;-51
2021/11/25 10:59:13;;;;;;;29.03;11.40;;;6.50;99.90;;;;;;4908688;29;20443;-49
2021/11/25 11:01:42;;;;;;;17.23;9.97;;;6.50;99.90;;;;;;4914481;23;20499;-46
2021/11/25 11:04:10;;;;;;;17.87;11.57;;;6.50;99.90;;;;;;4889632;29;20455;-46
2021/11/25 11:06:39;;;;;;;14.27;9.10;;;6.50;99.90;;;;;;4889720;23;20495;-47
2021/11/25 11:09:08;;;;;;;18.43;10.93;;;6.50;99.90;;;;;;4888538;29;21040;-51
2021/11/25 11:11:38;;;;;;;19.93;9.77;;;6.50;99.90;;;;;;4894619;23;20507;-50
2021/11/25 11:14:17;;;;;;;20.87;10.63;;;6.50;99.90;;;;;;4870093;29;20476;-50
2021/11/25 11:16:47;;;;;;;20.47;10.77;;;6.50;99.90;;;;;;4895381;23;20562;-50
2021/11/25 11:19:17;;;;;;;26.73;12.67;;;6.60;99.90;;;;;;4892147;29;20467;-50
2021/11/25 11:21:47;;;;;;;23.17;12.03;;;6.60;99.90;;;;;;4898631;23;20494;-48
2021/11/25 11:24:17;;;;;;;20.33;11.50;;;6.60;99.90;;;;;;4880106;29;20545;-48
2021/11/25 11:29:32;;;;;;;26.43;11.33;;;6.60;99.90;;;;;;4904661;29;20541;-49
2021/11/25 11:34:44;;;;;;;20.47;11.47;;;6.60;99.90;;;;;;4908358;23;20869;-47
2021/11/25 11:39:57;;;;;;;22.57;12.20;;;6.50;99.90;;;;;;4908912;23;20463;-48
2021/11/25 11:45:11;;;;;;;18.30;11.03;;;6.50;99.90;;;;;;4917675;23;20518;-45
2021/11/25 11:50:10;;;;;;;20.93;12.50;;;6.40;99.90;;;;;;4921992;23;20502;-47
2021/11/25 11:52:54;;;;;;;19.43;10.53;;;6.40;99.90;;;;;;4897018;29;20451;-47
2021/11/25 11:55:34;;;;;;;20.90;11.30;;;6.30;99.90;;;;;;4893757;29;20487;-49
2021/11/25 11:58:02;;;;;;;22.47;12.23;;;6.30;99.90;;;;;;4893368;29;20459;-50
2021/11/25 12:00:37;;;;;;;26.33;12.00;;;6.30;99.90;;;;;;4893487;29;20535;-49
2021/11/25 12:03:05;;;;;;;29.10;13.60;;;6.20;99.90;;;;;;4893964;29;20801;-47
2021/11/25 12:05:51;;;;;;;25.23;12.47;;;6.10;99.90;;;;;;4896012;29;20460;-49
2021/11/25 12:08:43;;;;;;;20.47;11.67;;;6.10;99.90;;;;;;4887328;29;20531;-51
2021/11/25 12:11:38;;;;;;;23.00;12.17;;;6.10;99.90;;;;;;4896618;29;20467;-48
2021/11/25 12:14:08;;;;;;;21.03;12.73;;;6.20;99.90;;;;;;4887734;29;20518;-53
2021/11/25 12:16:40;;;;;;;23.30;13.37;;;6.20;99.90;;;;;;4893005;29;20450;-54
2021/11/25 12:19:09;;;;;;;18.77;12.00;;;6.20;99.90;;;;;;4896081;29;20428;-50
2021/11/25 12:21:45;;;;;;;27.73;14.03;;;6.20;99.90;;;;;;4894367;29;20467;-48
2021/11/25 12:24:23;;;;;;;21.03;12.77;;;6.30;99.90;;;;;;4894900;29;20520;-51
2021/11/25 12:27:12;;;;;;;18.57;10.53;;;6.30;99.90;;;;;;4892858;29;20485;-46
2021/11/25 12:29:49;;;;;;;21.40;10.43;;;6.20;99.90;;;;;;4895202;29;20476;-48
2021/11/25 12:32:35;;;;;;;24.30;12.57;;;6.20;99.90;;;;;;4879331;29;20534;-50
2021/11/25 12:35:05;;;;;;;21.70;12.33;;;6.20;99.90;;;;;;4893176;29;20981;-52
2021/11/25 12:37:55;;;;;;;19.60;11.60;;;6.30;99.90;;;;;;4900430;29;20443;-44
2021/11/25 12:40:57;;;;;;;16.60;10.63;;;6.30;99.90;;;;;;4887839;29;20519;-49
2021/11/25 12:43:26;;;;;;;27.57;12.50;;;6.30;99.90;;;;;;4902164;29;20435;-46
2021/11/25 12:45:55;;;;;;;24.70;10.27;;;6.20;99.90;;;;;;4901540;29;20443;-45
2021/11/25 12:48:27;;;;;;;23.50;11.50;;;6.30;99.90;;;;;;4901182;29;20518;-43
2021/11/25 12:50:58;;;;;;;22.93;12.50;;;6.30;99.90;;;;;;4902320;29;20534;-51
2021/11/25 12:53:29;;;;;;;20.70;11.40;;;6.30;99.90;;;;;;4901935;29;20442;-44
2021/11/25 12:56:00;;;;;;;19.37;10.83;;;6.30;99.90;;;;;;4901042;29;20439;-51
2021/11/25 12:58:32;;;;;;;23.47;13.20;;;6.30;99.90;;;;;;4901234;29;20798;-49
2021/11/25 13:01:00;;;;;;;15.93;10.03;;;6.20;99.90;;;;;;4901126;29;20444;-46
2021/11/25 13:03:33;;;;;;;21.00;11.17;;;6.20;99.90;;;;;;4901953;29;20475;-49
2021/11/25 13:06:01;;;;;;;21.77;11.57;;;6.20;99.90;;;;;;4901276;29;20444;-51
2021/11/25 13:08:32;;;;;;;14.30;9.33;;;6.20;99.90;;;;;;4901263;29;20507;-50
2021/11/25 13:11:01;;;;;;;15.43;10.53;;;6.20;99.90;;;;;;4901268;29;20499;-51
2021/11/25 13:13:30;;;;;;;25.70;12.10;;;6.20;99.90;;;;;;4901100;29;20439;-49
2021/11/25 13:16:01;;;;;;;16.83;10.57;;;6.20;99.90;;;;;;4901116;29;20477;-50
2021/11/25 13:18:52;;;;;;;21.10;11.47;;;6.20;99.90;;;;;;4900968;29;20466;-53
2021/11/25 13:21:28;;;;;;;28.60;11.23;;;6.20;99.90;;;;;;4900320;29;20483;-52
2021/11/25 13:24:02;;;;;;;62.37;29.10;;;6.20;99.90;;;;;;4900588;29;20451;-50